La Aurora Airport
MGGT : now visible

Airfield :











YOU CAN JOIN US ON...

 
LOGIN :

Register | Disclaimer

   EN    FR    IT 

 









Legend :    VFR   Marginal VFR   IFR   Intensive IFR   Very Intensive IFR
Visi :
Ceiling :
>= 8 km
>= 3000ft
5 to 8 km
1000 to 3000 ft
1500m to 5 km
500 to 1000 ft
800 to 1500m
200 to 500 ft
< 800m
< 200 ft
Symbols :   Thunderstorms  Fog  Heavy snow  Heavy precipitations  Wind > 20 kt







- Airport Elevation : 4952 ft
- IATA code : GUA


MGGT - La Aurora

CURRENT METAR :
  • 180200Z 18004KT 9999 FEW015 BKN200 19/17 Q1027 A3033

EXPIRED METARs :
  • 180100Z 18004KT 9999 SCT015 BKN090 19/17 Q1026 A3030
  • 180000Z 18004KT 9999 FEW014 BKN100 20/17 Q1025 A3027

TAF MGGT
Valid from the 18 at 00:00 until the 19 at 00:00 UTC


172300Z 1800/1900 04008KT 9999 BKN016 TX27/1820Z TN17/1812Z
TEMPO 1800/1804 16008KT 7000 TSRA FEW025CB
PROB30
TEMPO 1806/1816 VRB03KT 6000 SCT014
BECMG 1816/1818 02008KT SCT018
TEMPO 1818/1900 18008KT 8000 VCTSRA SCT020TCU FEW025CB
No reported NOTAMs for that airfield.



MET'MAP, your aeronautical weather chart ! - Copyright ORBIFLY December 2007 - Disclaimer

ORBIFLY MET'MAP TEAM :

Programming & Development : Alexandra Zaïnal
Concept & Development : Baudouin d'Aumeries
Co-Development & Prog : Marc-Olivier Méhu
Technical & hardware support : Manuel Goepfert

Contact : metmap@orbifly.com




SOURCES & CREDITS :

   NOAA       Earth
Advisory